createdAt,value
2022-10-18T06:11:40.003Z,22.5
2022-10-18T06:17:21.787Z,32.6
2022-10-18T06:22:59.047Z,30.7
2022-10-18T06:28:42.110Z,30.6
2022-10-18T06:34:19.970Z,36.9
2022-10-18T06:40:01.270Z,38.3
2022-10-18T06:45:56.712Z,39.4
2022-10-18T06:51:34.666Z,40.4
2022-10-18T06:57:35.176Z,41.4
2022-10-18T07:03:13.075Z,42.4
2022-10-18T07:08:51.863Z,43.3
2022-10-18T07:15:09.290Z,44.3
2022-10-18T07:20:49.797Z,45.3
2022-10-18T07:26:31.656Z,46.3
2022-10-18T07:31:56.778Z,47.3
2022-10-18T07:37:35.515Z,48.3
2022-10-18T07:43:13.779Z,49.3
2022-10-18T07:48:40.078Z,50.3
2022-10-18T07:54:02.886Z,51.3
2022-10-18T07:59:29.054Z,52.3
2022-10-18T08:04:56.643Z,53.1
2022-10-18T08:10:37.740Z,54.1
2022-10-18T08:15:59.702Z,55.1
2022-10-18T08:22:09.470Z,55.9
2022-10-18T08:27:48.546Z,56.9
2022-10-18T08:39:11.039Z,58.4
2022-10-18T08:44:52.893Z,59.1
2022-10-18T08:50:52.295Z,59.8
2022-10-18T08:56:29.029Z,60.4
2022-10-18T09:01:56.437Z,60.9
2022-10-18T09:07:35.299Z,61.5
2022-10-18T09:13:13.095Z,62
2022-10-18T09:18:38.747Z,62.6
2022-10-18T09:24:05.139Z,63
2022-10-18T09:29:26.759Z,63.6
2022-10-18T09:35:04.986Z,64.1
2022-10-18T09:40:44.879Z,64.6
2022-10-18T09:46:22.652Z,65.1
2022-10-18T09:52:04.119Z,65.6
2022-10-18T09:57:31.477Z,66.1
2022-10-18T10:03:09.972Z,66.4
2022-10-18T10:08:50.666Z,66.9
2022-10-18T10:14:29.297Z,67.4
2022-10-18T14:36:33.477Z,61.4
2022-10-18T14:42:11.623Z,58.4
2022-10-18T14:47:52.165Z,54.4
2022-10-18T14:53:32.725Z,51.2
2022-10-18T14:59:14.022Z,48.8
2022-10-18T15:04:51.065Z,47.1
2022-10-18T15:10:28.610Z,45.8
2022-10-18T15:16:31.786Z,44.6
2022-10-18T15:22:13.601Z,43.8
2022-10-18T15:28:01.977Z,42.9
2022-10-18T15:33:40.896Z,42.2
2022-10-18T15:39:23.011Z,41.5
2022-10-18T15:45:03.757Z,41
2022-10-18T15:50:42.409Z,40.3
2022-10-18T15:56:19.410Z,38.2
2022-10-18T16:01:59.967Z,35.7
2022-10-18T16:07:24.130Z,33.9
2022-10-18T16:12:46.782Z,32.8
2022-10-18T16:17:58.026Z,31.9
2022-10-18T16:23:11.042Z,31.1
2022-10-18T16:28:33.335Z,30.5
2022-10-18T16:33:40.797Z,29.9
2022-10-18T16:39:07.004Z,29.5
2022-10-18T16:44:29.157Z,29.1
2022-10-18T16:49:41.698Z,28.7
2022-10-18T16:54:51.272Z,28.3
2022-10-18T16:59:57.984Z,28
2022-10-18T17:04:53.747Z,27.8
2022-10-18T17:10:01.106Z,27.6
2022-10-18T17:14:52.139Z,27.3
2022-10-18T17:20:20.201Z,27.1
2022-10-18T17:25:26.449Z,26.9
2022-10-18T17:31:16.881Z,26.8
2022-10-18T17:36:38.617Z,26.6
2022-10-18T17:42:01.875Z,26.4
2022-10-18T17:47:27.230Z,26.3
2022-10-18T17:52:55.704Z,26.1
2022-10-18T17:58:20.623Z,25.9
2022-10-18T18:03:47.291Z,25.8
2022-10-18T18:08:38.778Z,25.8
2022-10-18T18:14:05.567Z,25.6
2022-10-18T18:19:58.031Z,25.6
2022-10-18T18:25:23.844Z,25.5
2022-10-18T18:30:36.686Z,25.4
2022-10-18T18:36:17.823Z,25.4
2022-10-18T18:41:23.869Z,25.3
